Terminal Aerodrome Forecast
Issued by NWS Billings, MT

Home | Current Version | Previous Version | Text Only | Print | Product List | Glossary On
Versions: 1 2 3 4 5 6 7 8 9 10 11 12
000
FTUS45 KBYZ 260527
TAFSHR
TAF
KSHR 260527Z 2606/2706 VRB04KT P6SM VCSH FEW060 SCT080 BKN120
     FM260900 VRB04KT P6SM SCT080
     FM261800 34007KT P6SM VCSH SCT060 BKN080
     FM262100 34007KT P6SM VCTS SCT070CB BKN090
     FM270300 VRB04KT P6SM SCT080=

USA.gov is the U.S. government's official web portal to all federal, state and local government web resources and services.